Airfield :
LOGIN :

Register | Disclaimer

   EN    FR    IT 

 










Legend :    VFR   Marginal VFR   IFR   Intensive IFR   Very Intensive IFR
Visi :
Ceiling :
>= 8 km
>= 3000ft
5 to 8 km
1000 to 3000 ft
1500m to 5 km
500 to 1000 ft
800 to 1500m
200 to 500 ft
< 800m
< 200 ft
Symbols :   Thunderstorms  Fog  Heavy snow  Heavy precipitations  Wind > 20 kt
SIGMETs :     Misc.  Thunderstorms  Icing  Turbulence  Mountain Waves  Volcanic Ashes






- Airport Elevation : 1017 ft


LFSL - Brive Souillac

CURRENT METAR :
  • 180530Z AUTO 00000KT 0750 R29/0800N FG VV/// 00/M00 Q1032 BECMG 9999 NSW SCT025

EXPIRED METARs :
  • 180500Z AUTO 00000KT 9999 FEW005 01/00 Q1032 NOSIG
  • 180430Z AUTO VRB01KT 9999 FEW011 SCT025 BKN032 01/01 Q1032 NOSIG
  • 180400Z AUTO 00000KT 8000 1600 FEW004 BKN026 01/01 Q1032 NOSIG
  • 180330Z AUTO 00000KT CAVOK 02/01 Q1032 NOSIG
  • 180300Z AUTO 00000KT 9999 FEW026 BKN034 03/03 Q1032 NOSIG

TAF TAF LFSL
Valid from the 18 at 06:00 until the 18 at 15:00 UTC


180500Z 1806/1815 VRB02KT 0600 FG VV///
BECMG 1809/1811 9999 SCT010TCU
TEMPO 1811/1815 SHRA SCT008 BKN015TCU



MET'MAP, your aeronautical weather chart ! - Copyright ORBIFLY December 2007 - Disclaimer

ORBIFLY MET'MAP TEAM :

Programming & Development : Alexandra Zaïnal
Concept & original design : Baudouin d'Aumeries
Assistance for programming : Marc-Olivier Méhu
Technical & hardware support : Manuel Goepfert

Contact : metmap@orbifly.com




SOURCES & CREDITS :

   NOAA